Map

Track Data

SID SEASON NUMBER BASIN SUBBASIN NAME ISO_TIME NATURE LAT LON WMO_WIND WMO_PRES WMO_AGENCY TRACK_TYPE DIST2LAND LANDFALL IFLAG USA_AGENCY USA_ATCF_ID USA_LAT USA_LON USA_RECORD USA_STATUS USA_WIND USA_PRES USA_SSHS USA_R34_NE USA_R34_SE USA_R34_SW USA_R34_NW USA_R50_NE USA_R50_SE USA_R50_SW USA_R50_NW USA_R64_NE USA_R64_SE USA_R64_SW USA_R64_NW USA_POCI USA_ROCI USA_RMW USA_EYE TOKYO_LAT TOKYO_LON TOKYO_GRADE TOKYO_WIND TOKYO_PRES TOKYO_R50_DIR TOKYO_R50_LONG TOKYO_R50_SHORT TOKYO_R30_DIR TOKYO_R30_LONG TOKYO_R30_SHORT TOKYO_LAND CMA_LAT CMA_LON CMA_CAT CMA_WIND CMA_PRES HKO_LAT HKO_LON HKO_CAT HKO_WIND HKO_PRES NEWDELHI_LAT NEWDELHI_LON NEWDELHI_GRADE NEWDELHI_WIND NEWDELHI_PRES NEWDELHI_CI NEWDELHI_DP NEWDELHI_POCI REUNION_LAT REUNION_LON REUNION_TYPE REUNION_WIND REUNION_PRES REUNION_TNUM REUNION_CI REUNION_RMW REUNION_R34_NE REUNION_R34_SE REUNION_R34_SW REUNION_R34_NW REUNION_R50_NE REUNION_R50_SE REUNION_R50_SW REUNION_R50_NW REUNION_R64_NE REUNION_R64_SE REUNION_R64_SW REUNION_R64_NW BOM_LAT BOM_LON BOM_TYPE BOM_WIND BOM_PRES BOM_TNUM BOM_CI BOM_RMW BOM_R34_NE BOM_R34_SE BOM_R34_SW BOM_R34_NW BOM_R50_NE BOM_R50_SE BOM_R50_SW BOM_R50_NW BOM_R64_NE BOM_R64_SE BOM_R64_SW BOM_R64_NW BOM_ROCI BOM_POCI BOM_EYE BOM_POS_METHOD BOM_PRES_METHOD NADI_LAT NADI_LON NADI_CAT NADI_WIND NADI_PRES WELLINGTON_LAT WELLINGTON_LON WELLINGTON_WIND WELLINGTON_PRES DS824_LAT DS824_LON DS824_STAGE DS824_WIND DS824_PRES TD9636_LAT TD9636_LON TD9636_STAGE TD9636_WIND TD9636_PRES TD9635_LAT TD9635_LON TD9635_WIND TD9635_PRES TD9635_ROCI NEUMANN_LAT NEUMANN_LON NEUMANN_CLASS NEUMANN_WIND NEUMANN_PRES MLC_LAT MLC_LON MLC_CLASS MLC_WIND MLC_PRES USA_GUST BOM_GUST BOM_GUST_PER REUNION_GUST REUNION_GUST_PER USA_SEAHGT USA_SEARAD_NE USA_SEARAD_SE USA_SEARAD_SW USA_SEARAD_NW STORM_SPEED STORM_DIR
1857355S06086 1858 20 SI MM NOT_NAMED 1857-12-21 06:00:00 NR -6.40000 85.9000 main 1492 1492 _____O________ -1 -6.40000 85.9000 99 9.90000 2 249
1857355S06086 1858 20 SI MM NOT_NAMED 1857-12-21 09:00:00 NR -6.43122 85.8199 main 1494 1494 _____P________ -1 -6.43122 85.8199 99 2 248
1857355S06086 1858 20 SI MM NOT_NAMED 1857-12-21 12:00:00 NR -6.46542 85.7356 main 1500 1496 _____P________ -1 -6.46542 85.7356 99 2 247
1857355S06086 1858 20 SI MM NOT_NAMED 1857-12-21 15:00:00 NR -6.50557 85.6427 main 1496 1492 _____P________ -1 -6.50557 85.6427 99 2 246
1857355S06086 1858 20 SI MM NOT_NAMED 1857-12-21 18:00:00 NR -6.55467 85.5370 main 1502 1498 _____P________ -1 -6.55467 85.5370 99 3 244
1857355S06086 1858 20 SI MM NOT_NAMED 1857-12-21 21:00:00 NR -6.61569 85.4142 main 1498 1498 _____P________ -1 -6.61569 85.4142 99 3 243
1857355S06086 1858 20 SI MM NOT_NAMED 1857-12-22 00:00:00 NR -6.69161 85.2699 main 1505 1501 _____P________ -1 -6.69161 85.2699 99 4 241
1857355S06086 1858 20 SI MM NOT_NAMED 1857-12-22 03:00:00 NR -6.78539 85.1000 main 1508 1504 _____P________ -1 -6.78539 85.1000 99 4 240
1857355S06086 1858 20 SI MM NOT_NAMED 1857-12-22 06:00:00 NR -6.90000 84.9000 main 1511 1508 _____O________ -1 -6.90000 84.9000 99 9.90000 5 240
1857355S06086 1858 20 SI MM NOT_NAMED 1857-12-22 09:00:00 NR -7.03717 84.6674 main 1515 1515 _____P________ -1 -7.03717 84.6674 99 6 239
1857355S06086 1858 20 SI MM NOT_NAMED 1857-12-22 12:00:00 NR -7.19378 84.4066 main 1527 1524 _____P________ -1 -7.19378 84.4066 99 6 239
1857355S06086 1858 20 SI MM NOT_NAMED 1857-12-22 15:00:00 NR -7.36550 84.1239 main 1540 1537 _____P________ -1 -7.36550 84.1239 99 7 238
1857355S06086 1858 20 SI MM NOT_NAMED 1857-12-22 18:00:00 NR -7.54801 83.8255 main 1543 1543 _____P________ -1 -7.54801 83.8255 99 7 238
1857355S06086 1858 20 SI MM NOT_NAMED 1857-12-22 21:00:00 NR -7.73699 83.5176 main 1557 1557 _____P________ -1 -7.73699 83.5176 99 7 238
1857355S06086 1858 20 SI MM NOT_NAMED 1857-12-23 00:00:00 NR -7.92816 83.2065 main 1573 1573 _____P________ -1 -7.92816 83.2065 99 7 238
1857355S06086 1858 20 SI MM NOT_NAMED 1857-12-23 03:00:00 NR -8.11725 82.8986 main 1589 1587 _____P________ -1 -8.11725 82.8986 99 7 238
1857355S06086 1858 20 SI MM NOT_NAMED 1857-12-23 06:00:00 NR -8.30000 82.6000 main 1606 1605 _____O________ -1 -8.30000 82.6000 99 9.90000 7 240
1857355S06086 1858 20 SI MM NOT_NAMED 1857-12-23 09:00:00 NR -8.45160 82.3168 main 1624 1622 _____P________ -1 -8.45160 82.3168 99 6 242
1857355S06086 1858 20 SI MM NOT_NAMED 1857-12-23 12:00:00 NR -8.59809 82.0376 main 1632 1631 _____P________ -1 -8.59809 82.0376 99 6 242
1857355S06086 1858 20 SI MM NOT_NAMED 1857-12-23 15:00:00 NR -8.74180 81.7652 main 1641 1641 _____P________ -1 -8.74180 81.7652 99 6 242
1857355S06086 1858 20 SI MM NOT_NAMED 1857-12-23 18:00:00 NR -8.88503 81.5023 main 1661 1660 _____P________ -1 -8.88503 81.5023 99 6 240
1857355S06086 1858 20 SI MM NOT_NAMED 1857-12-23 21:00:00 NR -9.03014 81.2516 main 1671 1670 _____P________ -1 -9.03014 81.2516 99 6 238
1857355S06086 1858 20 SI MM NOT_NAMED 1857-12-24 00:00:00 NR -9.17944 81.0158 main 1692 1692 _____P________ -1 -9.17944 81.0158 99 5 236
1857355S06086 1858 20 SI MM NOT_NAMED 1857-12-24 03:00:00 NR -9.33528 80.7977 main 1703 1703 _____P________ -1 -9.33528 80.7977 99 5 232
1857355S06086 1858 20 SI MM NOT_NAMED 1857-12-24 06:00:00 NR -9.50000 80.6000 main 1725 1725 _____O________ -1 -9.50000 80.6000 99 9.90000 5 228
1857355S06086 1858 20 SI MM NOT_NAMED 1857-12-24 09:00:00 NR -9.68315 80.4037 main 1748 1748 _____P________ -1 -9.68315 80.4037 99 5 225
1857355S06086 1858 20 SI MM NOT_NAMED 1857-12-24 12:00:00 NR -9.87504 80.2255 main 1770 1770 _____P________ -1 -9.87504 80.2255 99 5 220
1857355S06086 1858 20 SI MM NOT_NAMED 1857-12-24 15:00:00 NR -10.0737 80.0665 main 1793 1793 _____P________ -1 -10.0737 80.0665 99 5 216
1857355S06086 1858 20 SI MM NOT_NAMED 1857-12-24 18:00:00 NR -10.2772 79.9278 main 1816 1816 _____P________ -1 -10.2772 79.9278 99 5 211
1857355S06086 1858 20 SI MM NOT_NAMED 1857-12-24 21:00:00 NR -10.4835 79.8107 main 1839 1839 _____P________ -1 -10.4835 79.8107 99 5 207
1857355S06086 1858 20 SI MM NOT_NAMED 1857-12-25 00:00:00 NR -10.6908 79.7162 main 1862 1862 _____P________ -1 -10.6908 79.7162 99 4 201
1857355S06086 1858 20 SI MM NOT_NAMED 1857-12-25 03:00:00 NR -10.8969 79.6456 main 1885 1885 _____P________ -1 -10.8969 79.6456 99 4 195
1857355S06086 1858 20 SI MM NOT_NAMED 1857-12-25 06:00:00 NR -11.1000 79.6000 reunion main 1908 1908 _____O________ -1 -11.1000 79.6000 99 9.90000 4 195
1857355S06086 1858 20 SI MM NOT_NAMED 1857-12-25 09:00:00 NR -11.2938 79.5370 main 1931 1931 _____P________ -1 -11.2938 79.5370 99 4 195
1857355S06086 1858 20 SI MM NOT_NAMED 1857-12-25 12:00:00 NR -11.4856 79.4966 main 1953 1953 _____P________ -1 -11.4856 79.4966 99 4 188
1857355S06086 1858 20 SI MM NOT_NAMED 1857-12-25 15:00:00 NR -11.6757 79.4818 main 1975 1975 _____P________ -1 -11.6757 79.4818 99 4 0
1857355S06086 1858 20 SI MM NOT_NAMED 1857-12-25 18:00:00 NR -11.8640 79.4957 main 1998 1998 _____P________ -1 -11.8640 79.4957 99 4 171
1857355S06086 1858 20 SI MM NOT_NAMED 1857-12-25 21:00:00 NR -12.0505 79.5414 main 2020 2019 _____P________ -1 -12.0505 79.5414 99 4 161
1857355S06086 1858 20 SI MM NOT_NAMED 1857-12-26 00:00:00 NR -12.2354 79.6220 main 2030 2030 _____P________ -1 -12.2354 79.6220 99 4 152
1857355S06086 1858 20 SI MM NOT_NAMED 1857-12-26 03:00:00 NR -12.4185 79.7405 main 2052 2052 _____P________ -1 -12.4185 79.7405 99 5 143
1857355S06086 1858 20 SI MM NOT_NAMED 1857-12-26 06:00:00 NR -12.6000 79.9000 reunion main 2074 2074 _____O________ -1 -12.6000 79.9000 99 9.90000 5 135
1857355S06086 1858 20 SI MM NOT_NAMED 1857-12-26 09:00:00 NR -12.7995 80.1264 main 2095 2095 _____P________ -1 -12.7995 80.1264 99 6 129
1857355S06086 1858 20 SI MM NOT_NAMED 1857-12-26 12:00:00 NR -12.9992 80.4003 main 2117 2117 _____P________ -1 -12.9992 80.4003 99 7 125
1857355S06086 1858 20 SI MM NOT_NAMED 1857-12-26 15:00:00 NR -13.1954 80.7085 main 2139 2139 _____P________ -1 -13.1954 80.7085 99 7 122
1857355S06086 1858 20 SI MM NOT_NAMED 1857-12-26 18:00:00 NR -13.3846 81.0378 main 2162 2162 _____P________ -1 -13.3846 81.0378 99 7 120
1857355S06086 1858 20 SI MM NOT_NAMED 1857-12-26 21:00:00 NR -13.5631 81.3750 main 2186 2186 _____P________ -1 -13.5631 81.3750 99 7 118
1857355S06086 1858 20 SI MM NOT_NAMED 1857-12-27 00:00:00 NR -13.7275 81.7067 main 2199 2199 _____P________ -1 -13.7275 81.7067 99 7 116
1857355S06086 1858 20 SI MM NOT_NAMED 1857-12-27 03:00:00 NR -13.8742 82.0195 main 2223 2223 _____P________ -1 -13.8742 82.0195 99 6 115
1857355S06086 1858 20 SI MM NOT_NAMED 1857-12-27 06:00:00 NR -14.0000 82.3000 main 2237 2237 _____O________ -1 -14.0000 82.3000 99 9.90000 6 114
1857355S06086 1858 20 SI MM NOT_NAMED 1857-12-27 09:00:00 NR -14.1026 82.5379 main 2250 2250 _____P________ -1 -14.1026 82.5379 99 5 114
1857355S06086 1858 20 SI MM NOT_NAMED 1857-12-27 12:00:00 NR -14.1841 82.7358 main 2263 2248 _____P________ -1 -14.1841 82.7358 99 4 113
1857355S06086 1858 20 SI MM NOT_NAMED 1857-12-27 15:00:00 NR -14.2475 82.8991 main 2248 2247 _____P________ -1 -14.2475 82.8991 99 3 111
1857355S06086 1858 20 SI MM NOT_NAMED 1857-12-27 18:00:00 NR -14.2960 83.0338 main 2247 2238 _____P________ -1 -14.2960 83.0338 99 3 110
1857355S06086 1858 20 SI MM NOT_NAMED 1857-12-27 21:00:00 NR -14.3324 83.1455 main 2238 2230 _____P________ -1 -14.3324 83.1455 99 2 108
1857355S06086 1858 20 SI MM NOT_NAMED 1857-12-28 00:00:00 NR -14.3599 83.2399 main 2236 2228 _____P________ -1 -14.3599 83.2399 99 2 106
1857355S06086 1858 20 SI MM NOT_NAMED 1857-12-28 03:00:00 NR -14.3815 83.3228 main 2228 2219 _____P________ -1 -14.3815 83.3228 99 2 105
1857355S06086 1858 20 SI MM NOT_NAMED 1857-12-28 06:00:00 NR -14.4000 83.4000 main 2219 _____O________ -1 -14.4000 83.4000 99 9.90000 2 104

About IBTrACS Database

This database is a web-friendly format of International Best Track Archive for Climate Stewardship (IBTrACS), a global best track data archive curated by NOAA dating back to 1842.

Updated: 2021-10-25